sensor_id;sensor_type;location;lat;lon;timestamp;temperature;humidity
28193;DHT22;15473;50.840;3.396;2023-02-04T00:00:24;9.40;99.90
28193;DHT22;15473;50.840;3.396;2023-02-04T00:03:10;9.50;99.90
28193;DHT22;15473;50.840;3.396;2023-02-04T00:05:58;9.50;99.90
28193;DHT22;15473;50.840;3.396;2023-02-04T00:08:43;9.40;99.90
28193;DHT22;15473;50.840;3.396;2023-02-04T00:11:35;9.50;99.90
28193;DHT22;15473;50.840;3.396;2023-02-04T00:14:27;9.40;99.90
28193;DHT22;15473;50.840;3.396;2023-02-04T00:17:13;9.50;99.90
28193;DHT22;15473;50.840;3.396;2023-02-04T00:20:05;9.40;99.90
28193;DHT22;15473;50.840;3.396;2023-02-04T00:22:51;9.50;99.90
28193;DHT22;15473;50.840;3.396;2023-02-04T00:25:37;9.40;99.90
28193;DHT22;15473;50.840;3.396;2023-02-04T00:28:22;9.50;99.90
28193;DHT22;15473;50.840;3.396;2023-02-04T00:31:10;9.50;99.90
28193;DHT22;15473;50.840;3.396;2023-02-04T00:33:55;9.50;99.90
28193;DHT22;15473;50.840;3.396;2023-02-04T00:36:47;9.50;99.90
28193;DHT22;15473;50.840;3.396;2023-02-04T00:39:33;9.50;99.90
28193;DHT22;15473;50.840;3.396;2023-02-04T00:42:19;9.50;99.90
28193;DHT22;15473;50.840;3.396;2023-02-04T00:45:04;9.50;99.90
28193;DHT22;15473;50.840;3.396;2023-02-04T00:47:56;9.50;99.90
28193;DHT22;15473;50.840;3.396;2023-02-04T00:50:42;9.50;99.90
28193;DHT22;15473;50.840;3.396;2023-02-04T00:53:27;9.50;99.90
28193;DHT22;15473;50.840;3.396;2023-02-04T00:56:13;9.50;99.90
28193;DHT22;15473;50.840;3.396;2023-02-04T00:58:59;9.50;99.90
28193;DHT22;15473;50.840;3.396;2023-02-04T01:01:45;9.50;99.90
28193;DHT22;15473;50.840;3.396;2023-02-04T01:04:30;9.50;99.90
28193;DHT22;15473;50.840;3.396;2023-02-04T01:07:16;9.50;99.90
28193;DHT22;15473;50.840;3.396;2023-02-04T01:10:09;9.50;99.90
28193;DHT22;15473;50.840;3.396;2023-02-04T01:12:58;9.50;99.90
28193;DHT22;15473;50.840;3.396;2023-02-04T01:15:47;9.50;99.90
28193;DHT22;15473;50.840;3.396;2023-02-04T01:18:33;9.40;99.90
28193;DHT22;15473;50.840;3.396;2023-02-04T01:21:25;9.50;99.90
28193;DHT22;15473;50.840;3.396;2023-02-04T01:24:17;9.50;99.90
28193;DHT22;15473;50.840;3.396;2023-02-04T01:27:09;9.50;99.90
28193;DHT22;15473;50.840;3.396;2023-02-04T01:30:01;9.50;99.90
28193;DHT22;15473;50.840;3.396;2023-02-04T01:32:47;9.50;99.90
28193;DHT22;15473;50.840;3.396;2023-02-04T01:35:33;9.50;99.90
28193;DHT22;15473;50.840;3.396;2023-02-04T01:38:25;9.50;99.90
28193;DHT22;15473;50.840;3.396;2023-02-04T01:41:13;9.50;99.90
28193;DHT22;15473;50.840;3.396;2023-02-04T01:44:06;9.50;99.90
28193;DHT22;15473;50.840;3.396;2023-02-04T01:46:51;9.50;99.90
28193;DHT22;15473;50.840;3.396;2023-02-04T01:49:44;9.50;99.90
28193;DHT22;15473;50.840;3.396;2023-02-04T01:52:37;9.50;99.90
28193;DHT22;15473;50.840;3.396;2023-02-04T01:55:25;9.50;99.90
28193;DHT22;15473;50.840;3.396;2023-02-04T01:58:10;9.50;99.90
28193;DHT22;15473;50.840;3.396;2023-02-04T02:00:57;9.40;99.90
28193;DHT22;15473;50.840;3.396;2023-02-04T02:03:44;9.50;99.90
28193;DHT22;15473;50.840;3.396;2023-02-04T02:06:36;9.40;99.90
28193;DHT22;15473;50.840;3.396;2023-02-04T02:09:22;9.50;99.90
28193;DHT22;15473;50.840;3.396;2023-02-04T02:12:08;9.50;99.90
28193;DHT22;15473;50.840;3.396;2023-02-04T02:15:00;9.50;99.90
28193;DHT22;15473;50.840;3.396;2023-02-04T02:17:46;9.50;99.90
28193;DHT22;15473;50.840;3.396;2023-02-04T02:20:38;9.50;99.90
28193;DHT22;15473;50.840;3.396;2023-02-04T02:23:46;9.50;99.90
28193;DHT22;15473;50.840;3.396;2023-02-04T02:26:39;9.50;99.90
28193;DHT22;15473;50.840;3.396;2023-02-04T02:29:31;9.50;99.90
28193;DHT22;15473;50.840;3.396;2023-02-04T02:32:24;9.40;99.90
28193;DHT22;15473;50.840;3.396;2023-02-04T02:35:10;9.40;99.90
28193;DHT22;15473;50.840;3.396;2023-02-04T02:38:01;9.40;99.90
28193;DHT22;15473;50.840;3.396;2023-02-04T02:40:47;9.40;99.90
28193;DHT22;15473;50.840;3.396;2023-02-04T02:43:36;9.40;99.90
28193;DHT22;15473;50.840;3.396;2023-02-04T02:46:36;9.40;99.90
28193;DHT22;15473;50.840;3.396;2023-02-04T02:49:30;9.40;99.90
28193;DHT22;15473;50.840;3.396;2023-02-04T02:52:15;9.30;99.90
28193;DHT22;15473;50.840;3.396;2023-02-04T02:55:01;9.30;99.90
28193;DHT22;15473;50.840;3.396;2023-02-04T02:57:50;9.30;99.90
28193;DHT22;15473;50.840;3.396;2023-02-04T03:00:42;9.30;99.90
28193;DHT22;15473;50.840;3.396;2023-02-04T03:03:29;9.30;99.90
28193;DHT22;15473;50.840;3.396;2023-02-04T03:06:23;9.30;99.90
28193;DHT22;15473;50.840;3.396;2023-02-04T03:09:09;9.30;99.90
28193;DHT22;15473;50.840;3.396;2023-02-04T03:11:55;9.20;99.90
28193;DHT22;15473;50.840;3.396;2023-02-04T03:14:45;9.30;99.90
28193;DHT22;15473;50.840;3.396;2023-02-04T03:17:32;9.30;99.90
28193;DHT22;15473;50.840;3.396;2023-02-04T03:20:21;9.30;99.90
28193;DHT22;15473;50.840;3.396;2023-02-04T03:23:08;9.30;99.90
28193;DHT22;15473;50.840;3.396;2023-02-04T03:25:54;9.20;99.90
28193;DHT22;15473;50.840;3.396;2023-02-04T03:28:40;9.20;99.90
28193;DHT22;15473;50.840;3.396;2023-02-04T03:31:26;9.20;99.90
28193;DHT22;15473;50.840;3.396;2023-02-04T03:34:18;9.20;99.90
28193;DHT22;15473;50.840;3.396;2023-02-04T03:37:11;9.20;99.90
28193;DHT22;15473;50.840;3.396;2023-02-04T03:39:58;9.20;99.90
28193;DHT22;15473;50.840;3.396;2023-02-04T03:42:44;9.20;99.90
28193;DHT22;15473;50.840;3.396;2023-02-04T03:45:29;9.20;99.90
28193;DHT22;15473;50.840;3.396;2023-02-04T03:48:15;9.20;99.90
28193;DHT22;15473;50.840;3.396;2023-02-04T03:51:08;9.20;99.90
28193;DHT22;15473;50.840;3.396;2023-02-04T03:53:53;9.10;99.90
28193;DHT22;15473;50.840;3.396;2023-02-04T03:56:39;9.10;99.90
28193;DHT22;15473;50.840;3.396;2023-02-04T03:59:27;9.10;99.90
28193;DHT22;15473;50.840;3.396;2023-02-04T04:02:12;9.10;99.90
28193;DHT22;15473;50.840;3.396;2023-02-04T04:04:58;9.10;99.90
28193;DHT22;15473;50.840;3.396;2023-02-04T04:07:44;9.00;99.90
28193;DHT22;15473;50.840;3.396;2023-02-04T04:10:29;9.10;99.90
28193;DHT22;15473;50.840;3.396;2023-02-04T04:13:21;9.10;99.90
28193;DHT22;15473;50.840;3.396;2023-02-04T04:16:07;9.10;99.90
28193;DHT22;15473;50.840;3.396;2023-02-04T04:18:55;9.00;99.90
28193;DHT22;15473;50.840;3.396;2023-02-04T04:21:44;9.00;99.90
28193;DHT22;15473;50.840;3.396;2023-02-04T04:24:36;9.00;99.90
28193;DHT22;15473;50.840;3.396;2023-02-04T04:27:22;9.00;99.90
28193;DHT22;15473;50.840;3.396;2023-02-04T04:30:08;9.00;99.90
28193;DHT22;15473;50.840;3.396;2023-02-04T04:32:56;9.00;99.90
28193;DHT22;15473;50.840;3.396;2023-02-04T04:35:49;9.00;99.90
28193;DHT22;15473;50.840;3.396;2023-02-04T04:38:34;8.90;99.90
28193;DHT22;15473;50.840;3.396;2023-02-04T04:41:21;9.00;99.90
28193;DHT22;15473;50.840;3.396;2023-02-04T04:44:13;9.00;99.90
28193;DHT22;15473;50.840;3.396;2023-02-04T04:47:06;9.00;99.90
28193;DHT22;15473;50.840;3.396;2023-02-04T04:49:54;9.00;99.90
28193;DHT22;15473;50.840;3.396;2023-02-04T04:52:39;8.90;99.90
28193;DHT22;15473;50.840;3.396;2023-02-04T04:55:31;8.90;99.90
28193;DHT22;15473;50.840;3.396;2023-02-04T04:58:30;8.90;99.90
28193;DHT22;15473;50.840;3.396;2023-02-04T05:01:15;8.90;99.90
28193;DHT22;15473;50.840;3.396;2023-02-04T05:04:01;8.90;99.90
28193;DHT22;15473;50.840;3.396;2023-02-04T05:06:47;8.90;99.90
28193;DHT22;15473;50.840;3.396;2023-02-04T05:09:39;8.90;99.90
28193;DHT22;15473;50.840;3.396;2023-02-04T05:12:31;8.90;99.90
28193;DHT22;15473;50.840;3.396;2023-02-04T05:15:19;8.90;99.90
28193;DHT22;15473;50.840;3.396;2023-02-04T05:18:04;8.90;99.90
28193;DHT22;15473;50.840;3.396;2023-02-04T05:20:50;8.80;99.90
28193;DHT22;15473;50.840;3.396;2023-02-04T05:23:35;8.80;99.90
28193;DHT22;15473;50.840;3.396;2023-02-04T05:26:25;8.80;99.90
28193;DHT22;15473;50.840;3.396;2023-02-04T05:29:17;8.80;99.90
28193;DHT22;15473;50.840;3.396;2023-02-04T05:32:03;8.80;99.90
28193;DHT22;15473;50.840;3.396;2023-02-04T05:34:48;8.80;99.90
28193;DHT22;15473;50.840;3.396;2023-02-04T05:37:34;8.80;99.90
28193;DHT22;15473;50.840;3.396;2023-02-04T05:40:20;8.80;99.90
28193;DHT22;15473;50.840;3.396;2023-02-04T05:43:06;8.80;99.90
28193;DHT22;15473;50.840;3.396;2023-02-04T05:45:52;8.70;99.90
28193;DHT22;15473;50.840;3.396;2023-02-04T05:48:45;8.80;99.90
28193;DHT22;15473;50.840;3.396;2023-02-04T05:51:31;8.80;99.90
28193;DHT22;15473;50.840;3.396;2023-02-04T05:54:18;8.70;99.90
28193;DHT22;15473;50.840;3.396;2023-02-04T05:57:04;8.70;99.90
28193;DHT22;15473;50.840;3.396;2023-02-04T05:59:50;8.70;99.90
28193;DHT22;15473;50.840;3.396;2023-02-04T06:02:42;8.70;99.90
28193;DHT22;15473;50.840;3.396;2023-02-04T06:05:33;8.70;99.90
28193;DHT22;15473;50.840;3.396;2023-02-04T06:08:25;8.70;99.90
28193;DHT22;15473;50.840;3.396;2023-02-04T06:11:11;8.70;99.90
28193;DHT22;15473;50.840;3.396;2023-02-04T06:13:56;8.60;99.90
28193;DHT22;15473;50.840;3.396;2023-02-04T06:16:42;8.60;99.90
28193;DHT22;15473;50.840;3.396;2023-02-04T06:19:28;8.50;99.90
28193;DHT22;15473;50.840;3.396;2023-02-04T06:22:13;8.50;99.90
28193;DHT22;15473;50.840;3.396;2023-02-04T06:24:59;8.40;99.90
28193;DHT22;15473;50.840;3.396;2023-02-04T06:27:49;8.30;99.90
28193;DHT22;15473;50.840;3.396;2023-02-04T06:30:35;8.20;99.90
28193;DHT22;15473;50.840;3.396;2023-02-04T06:33:23;8.10;99.90
28193;DHT22;15473;50.840;3.396;2023-02-04T06:36:08;8.00;99.90
28193;DHT22;15473;50.840;3.396;2023-02-04T06:38:55;7.90;99.90
28193;DHT22;15473;50.840;3.396;2023-02-04T06:41:48;7.80;99.90
28193;DHT22;15473;50.840;3.396;2023-02-04T06:44:35;7.70;99.90
28193;DHT22;15473;50.840;3.396;2023-02-04T06:47:21;7.60;99.90
28193;DHT22;15473;50.840;3.396;2023-02-04T06:50:07;7.50;99.90
28193;DHT22;15473;50.840;3.396;2023-02-04T06:52:52;7.40;99.90
28193;DHT22;15473;50.840;3.396;2023-02-04T06:55:40;7.30;99.90
28193;DHT22;15473;50.840;3.396;2023-02-04T06:58:25;7.20;99.90
28193;DHT22;15473;50.840;3.396;2023-02-04T07:01:17;7.20;99.90
28193;DHT22;15473;50.840;3.396;2023-02-04T07:04:04;7.20;99.90
28193;DHT22;15473;50.840;3.396;2023-02-04T07:06:50;7.10;99.90
28193;DHT22;15473;50.840;3.396;2023-02-04T07:09:35;7.10;99.90
28193;DHT22;15473;50.840;3.396;2023-02-04T07:12:22;7.10;99.90
28193;DHT22;15473;50.840;3.396;2023-02-04T07:15:10;7.10;99.90
28193;DHT22;15473;50.840;3.396;2023-02-04T07:18:01;7.10;99.90
28193;DHT22;15473;50.840;3.396;2023-02-04T07:20:53;7.10;99.90
28193;DHT22;15473;50.840;3.396;2023-02-04T07:23:42;7.10;99.90
28193;DHT22;15473;50.840;3.396;2023-02-04T07:26:29;7.20;99.90
28193;DHT22;15473;50.840;3.396;2023-02-04T07:29:15;7.20;99.90
28193;DHT22;15473;50.840;3.396;2023-02-04T07:32:01;7.20;99.90
28193;DHT22;15473;50.840;3.396;2023-02-04T07:34:47;7.20;99.90
28193;DHT22;15473;50.840;3.396;2023-02-04T07:37:39;7.30;99.90
28193;DHT22;15473;50.840;3.396;2023-02-04T07:40:25;7.30;99.90
28193;DHT22;15473;50.840;3.396;2023-02-04T07:43:15;7.40;99.90
28193;DHT22;15473;50.840;3.396;2023-02-04T07:46:01;7.50;99.90
28193;DHT22;15473;50.840;3.396;2023-02-04T07:48:46;7.50;99.90
28193;DHT22;15473;50.840;3.396;2023-02-04T07:51:32;7.60;99.90
28193;DHT22;15473;50.840;3.396;2023-02-04T07:54:18;7.70;99.90
28193;DHT22;15473;50.840;3.396;2023-02-04T07:57:04;7.70;99.90
28193;DHT22;15473;50.840;3.396;2023-02-04T07:59:54;7.80;99.90
28193;DHT22;15473;50.840;3.396;2023-02-04T08:02:40;7.80;99.90
28193;DHT22;15473;50.840;3.396;2023-02-04T08:05:32;7.90;99.90
28193;DHT22;15473;50.840;3.396;2023-02-04T08:08:18;8.00;99.90
28193;DHT22;15473;50.840;3.396;2023-02-04T08:11:10;8.10;99.90
28193;DHT22;15473;50.840;3.396;2023-02-04T08:13:55;8.20;99.90
28193;DHT22;15473;50.840;3.396;2023-02-04T08:16:47;8.20;99.90
28193;DHT22;15473;50.840;3.396;2023-02-04T08:19:39;8.30;99.90
28193;DHT22;15473;50.840;3.396;2023-02-04T08:22:31;8.40;99.90
28193;DHT22;15473;50.840;3.396;2023-02-04T08:25:18;8.50;99.90
28193;DHT22;15473;50.840;3.396;2023-02-04T08:28:04;8.50;99.90
28193;DHT22;15473;50.840;3.396;2023-02-04T08:30:56;8.60;99.90
28193;DHT22;15473;50.840;3.396;2023-02-04T08:33:41;8.80;99.90
28193;DHT22;15473;50.840;3.396;2023-02-04T08:36:29;8.90;99.90
28193;DHT22;15473;50.840;3.396;2023-02-04T08:39:15;8.90;99.90
28193;DHT22;15473;50.840;3.396;2023-02-04T08:42:01;9.00;99.90
28193;DHT22;15473;50.840;3.396;2023-02-04T08:44:46;9.10;99.90
28193;DHT22;15473;50.840;3.396;2023-02-04T08:47:39;9.30;99.90
28193;DHT22;15473;50.840;3.396;2023-02-04T08:50:26;9.40;99.90
28193;DHT22;15473;50.840;3.396;2023-02-04T08:53:27;9.50;99.90
28193;DHT22;15473;50.840;3.396;2023-02-04T08:56:14;9.60;99.90
28193;DHT22;15473;50.840;3.396;2023-02-04T08:59:04;9.80;99.90
28193;DHT22;15473;50.840;3.396;2023-02-04T09:01:56;9.90;99.90
28193;DHT22;15473;50.840;3.396;2023-02-04T09:04:42;10.10;99.90
28193;DHT22;15473;50.840;3.396;2023-02-04T09:07:31;10.30;99.90
28193;DHT22;15473;50.840;3.396;2023-02-04T09:10:16;10.40;99.90
28193;DHT22;15473;50.840;3.396;2023-02-04T09:13:03;10.60;99.90
28193;DHT22;15473;50.840;3.396;2023-02-04T09:15:55;10.80;99.90
28193;DHT22;15473;50.840;3.396;2023-02-04T09:18:41;10.90;99.90
28193;DHT22;15473;50.840;3.396;2023-02-04T09:21:27;11.10;99.90
28193;DHT22;15473;50.840;3.396;2023-02-04T09:24:14;11.30;99.90
28193;DHT22;15473;50.840;3.396;2023-02-04T09:27:00;11.50;99.90
28193;DHT22;15473;50.840;3.396;2023-02-04T09:29:45;11.60;99.90
28193;DHT22;15473;50.840;3.396;2023-02-04T09:32:31;11.70;99.90
28193;DHT22;15473;50.840;3.396;2023-02-04T09:35:17;11.80;99.90
28193;DHT22;15473;50.840;3.396;2023-02-04T09:38:03;11.90;99.90
28193;DHT22;15473;50.840;3.396;2023-02-04T09:41:00;11.90;99.90
28193;DHT22;15473;50.840;3.396;2023-02-04T09:43:48;12.00;99.90
28193;DHT22;15473;50.840;3.396;2023-02-04T09:46:38;12.10;99.90
28193;DHT22;15473;50.840;3.396;2023-02-04T09:49:31;12.20;99.90
28193;DHT22;15473;50.840;3.396;2023-02-04T09:52:37;12.20;99.90
28193;DHT22;15473;50.840;3.396;2023-02-04T09:55:31;12.30;99.90
28193;DHT22;15473;50.840;3.396;2023-02-04T09:58:21;12.30;99.90
28193;DHT22;15473;50.840;3.396;2023-02-04T10:01:11;12.30;99.90
28193;DHT22;15473;50.840;3.396;2023-02-04T10:03:59;12.40;99.90
28193;DHT22;15473;50.840;3.396;2023-02-04T10:06:45;12.40;99.90
28193;DHT22;15473;50.840;3.396;2023-02-04T10:09:31;12.40;99.90
28193;DHT22;15473;50.840;3.396;2023-02-04T10:12:18;12.50;99.90
28193;DHT22;15473;50.840;3.396;2023-02-04T10:15:24;12.50;99.90
28193;DHT22;15473;50.840;3.396;2023-02-04T10:18:11;12.60;99.90
28193;DHT22;15473;50.840;3.396;2023-02-04T10:21:11;12.70;99.90
28193;DHT22;15473;50.840;3.396;2023-02-04T10:23:53;12.60;99.90
28193;DHT22;15473;50.840;3.396;2023-02-04T10:26:38;12.60;99.90
28193;DHT22;15473;50.840;3.396;2023-02-04T10:29:24;12.70;99.90
28193;DHT22;15473;50.840;3.396;2023-02-04T10:32:26;12.70;99.90
28193;DHT22;15473;50.840;3.396;2023-02-04T10:35:20;12.80;99.90
28193;DHT22;15473;50.840;3.396;2023-02-04T10:38:10;12.80;99.90
28193;DHT22;15473;50.840;3.396;2023-02-04T10:41:02;12.90;99.90
28193;DHT22;15473;50.840;3.396;2023-02-04T10:44:02;13.00;99.90
28193;DHT22;15473;50.840;3.396;2023-02-04T10:46:48;13.00;99.90
28193;DHT22;15473;50.840;3.396;2023-02-04T10:49:34;13.00;99.90
28193;DHT22;15473;50.840;3.396;2023-02-04T10:52:21;13.10;99.90
28193;DHT22;15473;50.840;3.396;2023-02-04T10:55:18;13.10;99.90
28193;DHT22;15473;50.840;3.396;2023-02-04T10:58:11;13.20;99.90
28193;DHT22;15473;50.840;3.396;2023-02-04T11:00:57;13.10;99.90
28193;DHT22;15473;50.840;3.396;2023-02-04T11:03:50;13.00;99.90
28193;DHT22;15473;50.840;3.396;2023-02-04T11:06:37;13.00;99.90
28193;DHT22;15473;50.840;3.396;2023-02-04T11:09:23;13.10;99.90
28193;DHT22;15473;50.840;3.396;2023-02-04T11:18:25;13.20;99.90
28193;DHT22;15473;50.840;3.396;2023-02-04T11:24:24;13.20;99.90
28193;DHT22;15473;50.840;3.396;2023-02-04T11:27:18;13.30;99.90
28193;DHT22;15473;50.840;3.396;2023-02-04T11:30:07;13.20;99.90
28193;DHT22;15473;50.840;3.396;2023-02-04T11:33:03;13.20;99.90
28193;DHT22;15473;50.840;3.396;2023-02-04T11:35:59;13.20;99.90
28193;DHT22;15473;50.840;3.396;2023-02-04T11:38:48;13.20;99.90
28193;DHT22;15473;50.840;3.396;2023-02-04T11:41:30;13.30;99.90
28193;DHT22;15473;50.840;3.396;2023-02-04T11:44:23;13.30;99.90
28193;DHT22;15473;50.840;3.396;2023-02-04T11:47:09;13.30;99.90
28193;DHT22;15473;50.840;3.396;2023-02-04T11:49:56;13.30;99.90
28193;DHT22;15473;50.840;3.396;2023-02-04T11:52:41;13.30;99.90
28193;DHT22;15473;50.840;3.396;2023-02-04T11:55:30;13.30;99.90
28193;DHT22;15473;50.840;3.396;2023-02-04T11:58:16;13.40;99.90
28193;DHT22;15473;50.840;3.396;2023-02-04T12:01:16;13.30;99.90
28193;DHT22;15473;50.840;3.396;2023-02-04T12:04:05;13.30;99.90
28193;DHT22;15473;50.840;3.396;2023-02-04T12:07:01;13.30;99.90
28193;DHT22;15473;50.840;3.396;2023-02-04T12:09:47;13.30;99.90
28193;DHT22;15473;50.840;3.396;2023-02-04T12:12:39;13.20;99.90
28193;DHT22;15473;50.840;3.396;2023-02-04T12:15:24;13.20;99.90
28193;DHT22;15473;50.840;3.396;2023-02-04T12:18:11;13.30;99.90
28193;DHT22;15473;50.840;3.396;2023-02-04T12:21:00;13.30;99.90
28193;DHT22;15473;50.840;3.396;2023-02-04T12:23:49;13.30;99.90
28193;DHT22;15473;50.840;3.396;2023-02-04T12:26:36;13.40;99.90
28193;DHT22;15473;50.840;3.396;2023-02-04T12:29:23;13.40;99.90
28193;DHT22;15473;50.840;3.396;2023-02-04T12:32:12;13.40;99.90
28193;DHT22;15473;50.840;3.396;2023-02-04T12:34:59;13.30;99.90
28193;DHT22;15473;50.840;3.396;2023-02-04T12:37:46;13.40;99.90
28193;DHT22;15473;50.840;3.396;2023-02-04T12:40:32;13.30;99.90
28193;DHT22;15473;50.840;3.396;2023-02-04T12:43:19;13.30;99.90
28193;DHT22;15473;50.840;3.396;2023-02-04T12:46:05;13.20;99.90
28193;DHT22;15473;50.840;3.396;2023-02-04T12:48:54;13.20;99.90
28193;DHT22;15473;50.840;3.396;2023-02-04T12:51:40;13.30;99.90
28193;DHT22;15473;50.840;3.396;2023-02-04T12:54:26;13.30;99.90
28193;DHT22;15473;50.840;3.396;2023-02-04T12:57:11;13.40;99.90
28193;DHT22;15473;50.840;3.396;2023-02-04T12:59:59;13.40;99.90
28193;DHT22;15473;50.840;3.396;2023-02-04T13:02:52;13.50;99.90
28193;DHT22;15473;50.840;3.396;2023-02-04T13:05:44;13.50;99.90
28193;DHT22;15473;50.840;3.396;2023-02-04T13:08:31;13.60;99.90
28193;DHT22;15473;50.840;3.396;2023-02-04T13:11:17;13.70;99.90
28193;DHT22;15473;50.840;3.396;2023-02-04T13:14:04;13.70;99.90
28193;DHT22;15473;50.840;3.396;2023-02-04T13:16:50;13.80;99.90
28193;DHT22;15473;50.840;3.396;2023-02-04T13:19:36;13.80;99.90
28193;DHT22;15473;50.840;3.396;2023-02-04T13:22:22;13.80;99.90
28193;DHT22;15473;50.840;3.396;2023-02-04T13:25:07;13.80;99.90
28193;DHT22;15473;50.840;3.396;2023-02-04T13:27:57;13.80;99.90
28193;DHT22;15473;50.840;3.396;2023-02-04T13:30:46;13.80;99.90
28193;DHT22;15473;50.840;3.396;2023-02-04T13:33:32;13.90;99.90
28193;DHT22;15473;50.840;3.396;2023-02-04T13:36:24;13.90;99.90
28193;DHT22;15473;50.840;3.396;2023-02-04T13:39:11;14.00;99.90
28193;DHT22;15473;50.840;3.396;2023-02-04T13:41:59;14.00;99.90
28193;DHT22;15473;50.840;3.396;2023-02-04T13:44:51;14.00;99.90
28193;DHT22;15473;50.840;3.396;2023-02-04T13:47:38;14.10;99.90
28193;DHT22;15473;50.840;3.396;2023-02-04T13:50:26;14.10;99.90
28193;DHT22;15473;50.840;3.396;2023-02-04T13:53:11;14.10;99.90
28193;DHT22;15473;50.840;3.396;2023-02-04T13:55:57;14.10;99.90
28193;DHT22;15473;50.840;3.396;2023-02-04T13:58:43;14.20;99.90
28193;DHT22;15473;50.840;3.396;2023-02-04T14:01:29;14.10;99.90
28193;DHT22;15473;50.840;3.396;2023-02-04T14:04:14;14.10;99.90
28193;DHT22;15473;50.840;3.396;2023-02-04T14:07:00;14.20;99.90
28193;DHT22;15473;50.840;3.396;2023-02-04T14:09:47;14.10;99.90
28193;DHT22;15473;50.840;3.396;2023-02-04T14:12:33;14.10;99.90
28193;DHT22;15473;50.840;3.396;2023-02-04T14:15:25;14.10;99.90
28193;DHT22;15473;50.840;3.396;2023-02-04T14:18:11;14.10;99.90
28193;DHT22;15473;50.840;3.396;2023-02-04T14:21:03;14.10;99.90
28193;DHT22;15473;50.840;3.396;2023-02-04T14:23:49;14.10;99.90
28193;DHT22;15473;50.840;3.396;2023-02-04T14:26:36;14.10;99.90
28193;DHT22;15473;50.840;3.396;2023-02-04T14:29:24;14.10;99.90
28193;DHT22;15473;50.840;3.396;2023-02-04T14:32:09;14.00;99.90
28193;DHT22;15473;50.840;3.396;2023-02-04T14:34:55;14.00;99.90
28193;DHT22;15473;50.840;3.396;2023-02-04T14:37:44;13.90;99.90
28193;DHT22;15473;50.840;3.396;2023-02-04T14:40:30;13.80;99.90
28193;DHT22;15473;50.840;3.396;2023-02-04T14:43:16;13.80;99.90
28193;DHT22;15473;50.840;3.396;2023-02-04T14:46:07;13.70;99.90
28193;DHT22;15473;50.840;3.396;2023-02-04T14:48:59;13.50;99.90
28193;DHT22;15473;50.840;3.396;2023-02-04T14:51:45;13.50;99.90
28193;DHT22;15473;50.840;3.396;2023-02-04T14:54:31;13.30;99.90
28193;DHT22;15473;50.840;3.396;2023-02-04T14:57:16;13.30;99.90
28193;DHT22;15473;50.840;3.396;2023-02-04T15:00:13;13.20;99.90
28193;DHT22;15473;50.840;3.396;2023-02-04T15:02:59;13.00;99.90
28193;DHT22;15473;50.840;3.396;2023-02-04T15:05:45;13.00;99.90
28193;DHT22;15473;50.840;3.396;2023-02-04T15:08:37;12.90;99.90
28193;DHT22;15473;50.840;3.396;2023-02-04T15:11:28;12.80;99.90
28193;DHT22;15473;50.840;3.396;2023-02-04T15:14:15;12.70;99.90
28193;DHT22;15473;50.840;3.396;2023-02-04T15:17:07;12.60;99.90
28193;DHT22;15473;50.840;3.396;2023-02-04T15:19:59;12.60;99.90
28193;DHT22;15473;50.840;3.396;2023-02-04T15:22:53;12.50;99.90
28193;DHT22;15473;50.840;3.396;2023-02-04T15:25:46;12.40;99.90
28193;DHT22;15473;50.840;3.396;2023-02-04T15:28:32;12.30;99.90
28193;DHT22;15473;50.840;3.396;2023-02-04T15:31:20;12.30;99.90
28193;DHT22;15473;50.840;3.396;2023-02-04T15:34:06;12.20;99.90
28193;DHT22;15473;50.840;3.396;2023-02-04T15:36:58;12.10;99.90
28193;DHT22;15473;50.840;3.396;2023-02-04T15:39:47;12.00;99.90
28193;DHT22;15473;50.840;3.396;2023-02-04T15:42:34;11.90;99.90
28193;DHT22;15473;50.840;3.396;2023-02-04T15:45:27;11.90;99.90
28193;DHT22;15473;50.840;3.396;2023-02-04T15:51:23;11.70;99.90
28193;DHT22;15473;50.840;3.396;2023-02-04T15:54:09;11.60;99.90
28193;DHT22;15473;50.840;3.396;2023-02-04T15:56:57;11.50;99.90
28193;DHT22;15473;50.840;3.396;2023-02-04T15:59:44;11.50;99.90
28193;DHT22;15473;50.840;3.396;2023-02-04T16:05:30;11.30;99.90
28193;DHT22;15473;50.840;3.396;2023-02-04T16:08:16;11.30;99.90
28193;DHT22;15473;50.840;3.396;2023-02-04T16:11:02;11.20;99.90
28193;DHT22;15473;50.840;3.396;2023-02-04T16:13:54;11.10;99.90
28193;DHT22;15473;50.840;3.396;2023-02-04T16:16:39;11.00;99.90
28193;DHT22;15473;50.840;3.396;2023-02-04T16:19:25;11.00;99.90
28193;DHT22;15473;50.840;3.396;2023-02-04T16:22:11;10.90;99.90
28193;DHT22;15473;50.840;3.396;2023-02-04T16:24:57;10.80;99.90
28193;DHT22;15473;50.840;3.396;2023-02-04T16:27:49;10.80;99.90
28193;DHT22;15473;50.840;3.396;2023-02-04T16:30:36;10.70;99.90
28193;DHT22;15473;50.840;3.396;2023-02-04T16:33:22;10.60;99.90
28193;DHT22;15473;50.840;3.396;2023-02-04T16:36:12;10.50;99.90
28193;DHT22;15473;50.840;3.396;2023-02-04T16:38:58;10.50;99.90
28193;DHT22;15473;50.840;3.396;2023-02-04T16:41:52;10.40;99.90
28193;DHT22;15473;50.840;3.396;2023-02-04T16:44:45;10.40;99.90
28193;DHT22;15473;50.840;3.396;2023-02-04T16:47:30;10.30;99.90
28193;DHT22;15473;50.840;3.396;2023-02-04T16:50:16;10.30;99.90
28193;DHT22;15473;50.840;3.396;2023-02-04T16:53:08;10.20;99.90
28193;DHT22;15473;50.840;3.396;2023-02-04T16:55:55;10.20;99.90
28193;DHT22;15473;50.840;3.396;2023-02-04T16:58:47;10.10;99.90
28193;DHT22;15473;50.840;3.396;2023-02-04T17:01:34;10.10;99.90
28193;DHT22;15473;50.840;3.396;2023-02-04T17:04:20;10.00;99.90
28193;DHT22;15473;50.840;3.396;2023-02-04T17:07:06;9.90;99.90
28193;DHT22;15473;50.840;3.396;2023-02-04T17:09:51;9.90;99.90
28193;DHT22;15473;50.840;3.396;2023-02-04T17:12:44;9.90;99.90
28193;DHT22;15473;50.840;3.396;2023-02-04T17:15:29;9.80;99.90
28193;DHT22;15473;50.840;3.396;2023-02-04T17:18:16;9.80;99.90
28193;DHT22;15473;50.840;3.396;2023-02-04T17:21:04;9.80;99.90
28193;DHT22;15473;50.840;3.396;2023-02-04T17:23:55;9.70;99.90
28193;DHT22;15473;50.840;3.396;2023-02-04T17:26:43;9.70;99.90
28193;DHT22;15473;50.840;3.396;2023-02-04T17:29:28;9.70;99.90
28193;DHT22;15473;50.840;3.396;2023-02-04T17:32:14;9.60;99.90
28193;DHT22;15473;50.840;3.396;2023-02-04T17:35:04;9.60;99.90
28193;DHT22;15473;50.840;3.396;2023-02-04T17:37:55;9.60;99.90
28193;DHT22;15473;50.840;3.396;2023-02-04T17:40:50;9.60;99.90
28193;DHT22;15473;50.840;3.396;2023-02-04T17:43:43;9.50;99.90
28193;DHT22;15473;50.840;3.396;2023-02-04T17:46:29;9.50;99.90
28193;DHT22;15473;50.840;3.396;2023-02-04T17:49:21;9.50;99.90
28193;DHT22;15473;50.840;3.396;2023-02-04T17:52:08;9.50;99.90
28193;DHT22;15473;50.840;3.396;2023-02-04T17:54:54;9.40;99.90
28193;DHT22;15473;50.840;3.396;2023-02-04T17:57:47;9.40;99.90
28193;DHT22;15473;50.840;3.396;2023-02-04T18:00:32;9.40;99.90
28193;DHT22;15473;50.840;3.396;2023-02-04T18:03:19;9.40;99.90
28193;DHT22;15473;50.840;3.396;2023-02-04T18:06:19;9.30;99.90
28193;DHT22;15473;50.840;3.396;2023-02-04T18:09:16;9.30;99.90